Time;durP1;ratioP1;P1;durP2;ratioP2;P2;SDS_P1;SDS_P2;PMS_P1;PMS_P2;Temp;Humidity;BMP_temperature;BMP_pressure;BME280_temperature;BME280_humidity;BME280_pressure;Samples;Min_cycle;Max_cycle;Signal;HPM_P1;HPM_P2
2022/01/07 00:00:26;;;;;;;12.57;9.80;;;3.50;99.90;;;;;;4941450;29;20254;-63
2022/01/07 00:02:57;;;;;;;13.10;9.45;;;3.50;99.90;;;;;;4932273;29;20706;-63
2022/01/07 00:05:30;;;;;;;12.23;9.27;;;3.60;99.90;;;;;;4955962;28;20222;-63
2022/01/07 00:07:58;;;;;;;11.15;8.25;;;3.70;99.90;;;;;;4931219;29;20227;-63
2022/01/07 00:10:26;;;;;;;14.63;9.05;;;3.80;99.90;;;;;;4931332;29;20204;-63
2022/01/07 00:12:56;;;;;;;14.00;9.02;;;3.80;99.90;;;;;;4930842;29;20231;-63
2022/01/07 00:15:24;;;;;;;14.30;9.70;;;3.80;99.90;;;;;;4931351;29;20239;-63
2022/01/07 00:17:52;;;;;;;11.95;8.73;;;3.80;99.90;;;;;;4937243;29;20263;-62
2022/01/07 00:20:20;;;;;;;12.20;8.55;;;3.80;99.90;;;;;;4937280;29;20717;-63
2022/01/07 00:22:48;;;;;;;17.33;9.52;;;3.80;99.90;;;;;;4936832;29;20700;-63
2022/01/07 00:25:17;;;;;;;12.00;9.48;;;3.80;99.90;;;;;;4937188;29;20196;-62
2022/01/07 00:27:45;;;;;;;13.93;9.60;;;3.70;99.90;;;;;;4937090;29;20236;-63
2022/01/07 00:30:16;;;;;;;13.57;8.60;;;3.70;99.90;;;;;;4930202;29;20606;-63
2022/01/07 00:32:44;;;;;;;17.27;10.48;;;3.70;99.90;;;;;;4947799;29;20234;-63
2022/01/07 00:35:13;;;;;;;14.07;10.13;;;3.70;99.90;;;;;;4955125;29;20215;-61
2022/01/07 00:37:42;;;;;;;16.08;11.68;;;3.70;99.90;;;;;;4955015;28;20238;-61
2022/01/07 00:40:14;;;;;;;16.88;11.82;;;3.60;99.90;;;;;;4955117;29;20246;-60
2022/01/07 00:42:42;;;;;;;18.55;12.38;;;3.60;99.90;;;;;;4954770;29;20664;-63
2022/01/07 00:45:10;;;;;;;14.63;12.50;;;3.30;99.90;;;;;;4955003;29;20764;-62
2022/01/07 00:47:39;;;;;;;18.40;13.85;;;3.20;99.90;;;;;;4954784;28;20262;-63
2022/01/07 00:50:09;;;;;;;16.70;12.75;;;3.10;99.90;;;;;;4955149;29;20294;-63
2022/01/07 00:52:37;;;;;;;20.75;13.30;;;3.20;99.90;;;;;;4954450;28;20249;-63
2022/01/07 00:55:06;;;;;;;19.77;12.80;;;3.20;99.90;;;;;;4940540;29;20303;-63
2022/01/07 00:57:35;;;;;;;16.63;13.45;;;3.20;99.90;;;;;;4936616;29;20247;-62
2022/01/07 01:00:06;;;;;;;16.05;12.70;;;2.60;99.90;;;;;;4942396;29;20632;-63
2022/01/07 01:02:34;;;;;;;21.73;15.50;;;2.40;99.90;;;;;;4933738;29;20250;-62
2022/01/07 01:05:04;;;;;;;24.42;15.85;;;2.60;99.90;;;;;;4937330;29;20192;-63
2022/01/07 01:07:32;;;;;;;20.58;14.20;;;2.70;99.90;;;;;;4952663;28;20254;-63
2022/01/07 01:10:01;;;;;;;17.77;12.75;;;2.70;99.90;;;;;;4954829;29;20283;-63
2022/01/07 01:12:29;;;;;;;18.00;12.85;;;2.80;99.90;;;;;;4954410;29;20203;-63
2022/01/07 01:14:57;;;;;;;17.48;14.00;;;2.80;99.90;;;;;;4954543;29;20310;-63
2022/01/07 01:17:24;;;;;;;17.98;13.70;;;2.90;99.90;;;;;;4954661;28;20251;-63
2022/01/07 01:19:52;;;;;;;19.50;13.98;;;3.00;99.90;;;;;;4954580;29;20705;-63
2022/01/07 01:22:21;;;;;;;19.73;13.10;;;3.20;99.90;;;;;;4954201;29;20294;-62
2022/01/07 01:24:49;;;;;;;16.30;12.68;;;3.30;99.90;;;;;;4954538;29;20227;-63
2022/01/07 01:27:17;;;;;;;15.43;12.45;;;3.40;99.90;;;;;;4954448;28;20309;-63
2022/01/07 01:29:45;;;;;;;20.60;13.55;;;3.50;99.90;;;;;;4946425;29;20222;-63
2022/01/07 01:32:16;;;;;;;19.95;13.18;;;3.50;99.90;;;;;;4939206;29;20273;-63
2022/01/07 01:34:44;;;;;;;16.95;14.32;;;3.10;99.90;;;;;;4935844;29;20228;-63
2022/01/07 01:37:11;;;;;;;20.73;13.48;;;3.20;99.90;;;;;;4935852;29;20255;-62
2022/01/07 01:39:41;;;;;;;24.73;16.77;;;3.40;99.90;;;;;;4935985;29;20299;-61
2022/01/07 01:42:09;;;;;;;20.50;14.25;;;3.30;99.90;;;;;;4935280;29;20208;-61
2022/01/07 01:44:37;;;;;;;17.90;12.85;;;3.40;99.90;;;;;;4935564;29;20641;-61
2022/01/07 01:47:05;;;;;;;12.18;10.98;;;3.40;99.90;;;;;;4936473;29;20246;-60
2022/01/07 01:49:33;;;;;;;15.43;10.63;;;3.10;99.90;;;;;;4935595;29;20231;-60
2022/01/07 01:52:01;;;;;;;14.18;11.70;;;2.70;99.90;;;;;;4935207;29;20212;-63
2022/01/07 01:54:29;;;;;;;14.65;12.57;;;2.50;99.90;;;;;;4941232;29;20195;-63
2022/01/07 01:56:58;;;;;;;17.20;12.52;;;2.50;99.90;;;;;;4953705;28;20270;-63
2022/01/07 01:59:28;;;;;;;16.02;12.77;;;2.40;99.90;;;;;;4951548;29;20242;-63
2022/01/07 02:01:57;;;;;;;16.40;13.43;;;2.40;99.90;;;;;;4932454;29;20822;-63
2022/01/07 02:04:25;;;;;;;17.83;14.25;;;2.30;99.90;;;;;;4928674;29;20246;-62
2022/01/07 02:06:54;;;;;;;19.70;15.10;;;2.20;99.90;;;;;;4929515;29;20258;-62
2022/01/07 02:09:27;;;;;;;20.33;15.10;;;2.30;99.90;;;;;;4925368;29;20292;-63
2022/01/07 02:11:55;;;;;;;16.52;13.48;;;2.50;99.90;;;;;;4943281;29;20283;-62
2022/01/07 02:14:24;;;;;;;17.75;14.57;;;2.70;99.90;;;;;;4935045;29;20208;-63
2022/01/07 02:16:52;;;;;;;17.15;13.35;;;2.70;99.90;;;;;;4934938;29;20672;-62
2022/01/07 02:19:20;;;;;;;20.52;13.73;;;2.90;99.90;;;;;;4935349;29;20239;-62
2022/01/07 02:21:49;;;;;;;20.98;14.20;;;3.00;99.90;;;;;;4935152;29;20290;-63
2022/01/07 02:24:17;;;;;;;18.92;14.48;;;3.10;99.90;;;;;;4934958;29;20223;-63
2022/01/07 02:26:47;;;;;;;21.33;15.10;;;3.20;99.90;;;;;;4934887;29;20311;-62
2022/01/07 02:29:15;;;;;;;16.27;14.55;;;3.20;99.90;;;;;;4936587;29;20252;-63
2022/01/07 02:31:42;;;;;;;18.90;14.07;;;3.30;99.90;;;;;;4943278;29;20290;-63
2022/01/07 02:34:10;;;;;;;16.70;13.07;;;3.50;99.90;;;;;;4934764;29;20228;-63
2022/01/07 02:36:38;;;;;;;20.45;14.70;;;3.60;99.90;;;;;;4934798;29;20308;-63
2022/01/07 02:39:07;;;;;;;18.73;14.68;;;3.60;99.90;;;;;;4934798;29;20220;-63
2022/01/07 02:41:35;;;;;;;19.58;15.02;;;3.70;99.90;;;;;;4934665;29;20287;-63
2022/01/07 02:44:03;;;;;;;21.30;14.50;;;3.70;99.90;;;;;;4934433;29;20741;-63
2022/01/07 02:46:31;;;;;;;18.25;13.70;;;3.80;99.90;;;;;;4934612;29;20235;-63
2022/01/07 02:49:00;;;;;;;17.90;13.75;;;3.80;99.90;;;;;;4934861;29;20204;-63
2022/01/07 02:51:28;;;;;;;17.38;14.18;;;3.80;99.90;;;;;;4934524;29;20207;-63
2022/01/07 02:53:56;;;;;;;18.38;13.48;;;3.70;99.90;;;;;;4936695;29;20282;-63
2022/01/07 02:56:25;;;;;;;16.88;13.80;;;3.70;99.90;;;;;;4952819;28;20227;-63
2022/01/07 02:58:53;;;;;;;15.18;13.50;;;3.70;99.90;;;;;;4947208;29;20704;-63
2022/01/07 03:01:21;;;;;;;15.93;12.70;;;3.70;99.90;;;;;;4929402;29;20262;-63
2022/01/07 03:03:49;;;;;;;20.42;13.15;;;3.60;99.90;;;;;;4952569;29;20231;-64
2022/01/07 03:06:17;;;;;;;19.48;11.85;;;3.50;99.90;;;;;;4952611;28;20243;-63
2022/01/07 03:08:46;;;;;;;17.50;12.77;;;3.30;99.90;;;;;;4952847;29;20675;-63
2022/01/07 03:11:14;;;;;;;14.90;12.77;;;2.80;99.90;;;;;;4952906;28;20286;-63
2022/01/07 03:13:44;;;;;;;20.52;14.55;;;2.50;99.90;;;;;;4952531;29;20282;-63
2022/01/07 03:16:12;;;;;;;15.98;13.15;;;2.30;99.90;;;;;;4945864;28;20242;-63
2022/01/07 03:18:40;;;;;;;19.13;14.32;;;2.30;99.90;;;;;;4940671;29;20656;-61
2022/01/07 03:21:09;;;;;;;17.75;13.20;;;2.50;99.90;;;;;;4938374;29;20232;-62
2022/01/07 03:23:37;;;;;;;22.15;13.75;;;2.30;99.90;;;;;;4938146;29;20254;-62
2022/01/07 03:26:05;;;;;;;16.83;12.50;;;2.10;99.90;;;;;;4938133;29;20696;-62
2022/01/07 03:28:33;;;;;;;21.52;15.27;;;2.10;99.90;;;;;;4938067;29;20291;-61
2022/01/07 03:31:02;;;;;;;17.55;14.48;;;2.00;99.90;;;;;;4940945;29;20224;-62
2022/01/07 03:33:30;;;;;;;17.27;14.15;;;1.70;99.90;;;;;;4938439;29;20208;-62
2022/01/07 03:35:58;;;;;;;21.27;14.75;;;1.60;99.90;;;;;;4938085;29;20306;-62
2022/01/07 03:38:26;;;;;;;20.17;15.80;;;1.80;99.90;;;;;;4938070;29;20245;-62
2022/01/07 03:40:54;;;;;;;24.48;16.45;;;1.90;99.90;;;;;;4938275;29;20291;-62
2022/01/07 03:43:23;;;;;;;18.27;15.52;;;2.00;99.90;;;;;;4937558;29;20645;-62
2022/01/07 03:45:51;;;;;;;17.40;13.73;;;2.30;99.90;;;;;;4937557;29;20220;-62
2022/01/07 03:48:20;;;;;;;18.60;14.13;;;2.40;99.90;;;;;;4937972;29;20724;-62
2022/01/07 03:50:48;;;;;;;16.27;13.60;;;2.60;99.90;;;;;;4937911;29;20295;-62
2022/01/07 03:53:16;;;;;;;15.15;12.63;;;2.60;99.90;;;;;;4937481;29;20288;-62
2022/01/07 03:55:44;;;;;;;14.73;13.00;;;2.50;99.90;;;;;;4955245;28;20661;-63
2022/01/07 03:58:12;;;;;;;20.63;14.00;;;2.50;99.90;;;;;;4955948;29;20226;-62
2022/01/07 04:00:41;;;;;;;16.90;13.18;;;2.50;99.90;;;;;;4938851;29;20239;-62
2022/01/07 04:03:12;;;;;;;16.20;12.38;;;2.40;99.90;;;;;;4942868;29;20208;-63
2022/01/07 04:05:42;;;;;;;17.73;13.90;;;2.60;99.90;;;;;;4937572;29;20238;-63
2022/01/07 04:08:10;;;;;;;16.10;12.45;;;2.70;99.90;;;;;;4931274;29;20299;-62
2022/01/07 04:10:38;;;;;;;15.68;12.93;;;2.90;99.90;;;;;;4931160;29;20283;-62
2022/01/07 04:13:06;;;;;;;17.27;12.05;;;2.80;99.90;;;;;;4937011;29;20250;-62
2022/01/07 04:15:34;;;;;;;12.93;11.70;;;2.70;99.90;;;;;;4931327;29;20235;-62
2022/01/07 04:18:03;;;;;;;16.95;10.60;;;2.40;99.90;;;;;;4931236;29;20302;-62
2022/01/07 04:20:33;;;;;;;18.45;12.35;;;1.90;99.90;;;;;;4937494;29;20763;-62
2022/01/07 04:23:03;;;;;;;16.73;12.23;;;1.60;99.90;;;;;;4942474;29;20223;-61
2022/01/07 04:25:31;;;;;;;18.52;13.35;;;1.60;99.90;;;;;;4937005;29;20228;-62
2022/01/07 04:28:02;;;;;;;15.45;11.00;;;1.90;99.90;;;;;;4937067;29;20250;-63
2022/01/07 04:30:32;;;;;;;14.93;11.63;;;1.80;99.90;;;;;;4938637;29;20236;-63
2022/01/07 04:33:01;;;;;;;16.33;11.60;;;1.70;99.90;;;;;;4936962;29;20294;-63
2022/01/07 04:35:31;;;;;;;17.83;12.05;;;1.50;99.90;;;;;;4937166;29;20200;-63
2022/01/07 04:37:59;;;;;;;14.80;12.50;;;1.30;99.90;;;;;;4936880;29;20240;-63
2022/01/07 04:40:28;;;;;;;18.48;11.90;;;1.10;99.90;;;;;;4936918;29;20236;-63
2022/01/07 04:42:56;;;;;;;17.25;11.45;;;1.10;99.90;;;;;;4936490;29;20303;-62
2022/01/07 04:45:24;;;;;;;18.75;12.15;;;1.10;99.90;;;;;;4936946;29;20291;-62
2022/01/07 04:47:52;;;;;;;19.90;12.50;;;1.00;99.90;;;;;;4936682;29;20338;-63
2022/01/07 04:50:22;;;;;;;18.63;13.00;;;0.90;99.90;;;;;;4936732;29;20306;-63
2022/01/07 04:52:50;;;;;;;26.30;13.80;;;1.00;99.90;;;;;;4936221;29;20283;-63
2022/01/07 04:55:21;;;;;;;22.27;13.85;;;1.00;99.90;;;;;;4951934;29;20728;-63
2022/01/07 04:57:50;;;;;;;17.00;13.15;;;1.10;99.90;;;;;;4954957;28;20314;-63
2022/01/07 05:00:21;;;;;;;18.88;13.13;;;1.10;99.90;;;;;;4942756;29;20282;-63
2022/01/07 05:02:50;;;;;;;16.95;13.05;;;1.00;99.90;;;;;;4940808;29;20878;-63
2022/01/07 05:05:18;;;;;;;14.50;11.70;;;1.10;99.90;;;;;;4936600;29;20207;-62
2022/01/07 05:07:46;;;;;;;20.40;14.30;;;1.20;99.90;;;;;;4954707;28;20302;-63
2022/01/07 05:10:15;;;;;;;20.30;14.57;;;1.40;99.90;;;;;;4954884;29;20233;-63
2022/01/07 05:12:45;;;;;;;15.10;13.32;;;1.60;99.90;;;;;;4954393;29;20286;-64
2022/01/07 05:15:15;;;;;;;17.85;13.40;;;1.80;99.90;;;;;;4954809;29;20286;-63
2022/01/07 05:17:44;;;;;;;17.30;12.70;;;1.50;99.90;;;;;;4954701;28;20297;-63
2022/01/07 05:20:13;;;;;;;18.23;13.82;;;1.30;99.90;;;;;;4954939;28;20243;-63
2022/01/07 05:22:41;;;;;;;18.98;13.45;;;1.40;99.90;;;;;;4954064;29;20266;-63
2022/01/07 05:25:11;;;;;;;21.60;13.98;;;1.40;99.90;;;;;;4954359;29;20234;-64
2022/01/07 05:27:40;;;;;;;23.77;15.27;;;1.30;99.90;;;;;;4943772;28;20212;-63
2022/01/07 05:30:10;;;;;;;23.00;15.93;;;1.30;99.90;;;;;;4930645;29;20304;-63
2022/01/07 05:32:39;;;;;;;23.77;17.30;;;1.30;99.90;;;;;;4935085;29;20665;-63
2022/01/07 05:35:09;;;;;;;23.08;15.80;;;1.20;99.90;;;;;;4954268;29;20627;-63
2022/01/07 05:37:36;;;;;;;19.27;15.10;;;1.10;99.90;;;;;;4928939;29;20667;-64
2022/01/07 05:40:06;;;;;;;24.75;17.20;;;1.20;99.90;;;;;;4929464;29;20242;-63
2022/01/07 05:42:33;;;;;;;21.02;16.60;;;1.10;99.90;;;;;;4929555;29;20290;-63
2022/01/07 05:45:01;;;;;;;22.13;16.85;;;1.20;99.90;;;;;;4935728;29;20671;-63
2022/01/07 05:47:29;;;;;;;29.08;19.10;;;1.30;99.90;;;;;;4933597;29;20284;-63
2022/01/07 05:49:58;;;;;;;24.40;18.35;;;1.40;99.90;;;;;;4921141;29;20287;-62
2022/01/07 05:52:26;;;;;;;20.38;17.85;;;1.40;99.90;;;;;;4925120;29;20205;-65
2022/01/07 05:54:54;;;;;;;19.20;17.15;;;1.30;99.90;;;;;;4933649;29;20604;-62
2022/01/07 05:57:21;;;;;;;19.17;15.70;;;1.30;99.90;;;;;;4942944;29;20318;-62
2022/01/07 05:59:49;;;;;;;19.30;16.85;;;1.30;99.90;;;;;;4934425;29;20299;-62
2022/01/07 06:02:17;;;;;;;29.73;19.17;;;1.20;99.90;;;;;;4921244;29;20569;-63
2022/01/07 06:04:48;;;;;;;24.73;18.80;;;1.10;99.90;;;;;;4935587;29;20661;-61
2022/01/07 06:07:17;;;;;;;29.92;20.77;;;1.10;99.90;;;;;;4930278;29;20247;-62
2022/01/07 06:09:45;;;;;;;22.13;18.95;;;1.10;99.90;;;;;;4921857;29;20291;-62
2022/01/07 06:12:13;;;;;;;24.55;21.92;;;1.10;99.90;;;;;;4919701;29;20717;-62
2022/01/07 06:14:41;;;;;;;30.17;23.50;;;1.00;99.90;;;;;;4947851;29;20294;-62
2022/01/07 06:17:10;;;;;;;31.02;23.17;;;1.00;99.90;;;;;;4948525;28;20274;-62
2022/01/07 06:19:38;;;;;;;29.35;22.55;;;1.00;99.90;;;;;;4937140;28;20246;-62
2022/01/07 06:22:09;;;;;;;26.30;23.50;;;1.10;99.90;;;;;;4925326;29;20208;-63
2022/01/07 06:24:38;;;;;;;32.08;25.75;;;1.10;99.90;;;;;;4929782;29;20295;-62
2022/01/07 06:27:06;;;;;;;27.80;24.00;;;1.00;99.90;;;;;;4929770;29;20323;-63
2022/01/07 06:29:34;;;;;;;31.88;25.83;;;1.00;99.90;;;;;;4925113;29;20732;-62
2022/01/07 06:32:03;;;;;;;30.38;25.25;;;1.00;99.90;;;;;;4931954;29;20208;-63
2022/01/07 06:34:31;;;;;;;30.40;25.00;;;1.00;99.90;;;;;;4927124;29;20215;-63
2022/01/07 06:37:00;;;;;;;34.35;26.10;;;0.90;99.90;;;;;;4938756;28;20780;-62
2022/01/07 06:39:28;;;;;;;32.08;26.90;;;0.90;99.90;;;;;;4929511;29;20306;-63
2022/01/07 06:41:58;;;;;;;31.13;27.70;;;0.90;99.90;;;;;;4931677;29;20227;-62
2022/01/07 06:44:27;;;;;;;29.63;25.63;;;0.90;99.90;;;;;;4926641;29;20223;-62
2022/01/07 06:46:55;;;;;;;29.92;26.67;;;0.90;99.90;;;;;;4935100;28;20363;-61
2022/01/07 06:49:23;;;;;;;31.20;26.10;;;0.90;99.90;;;;;;4925909;29;20786;-62
2022/01/07 06:51:51;;;;;;;34.47;26.45;;;0.90;99.90;;;;;;4919791;29;20310;-62
2022/01/07 06:54:19;;;;;;;34.92;28.30;;;0.90;99.90;;;;;;4936112;29;20290;-62
2022/01/07 06:56:47;;;;;;;33.45;27.73;;;0.90;99.90;;;;;;4947811;28;20311;-62
2022/01/07 06:59:16;;;;;;;34.40;27.25;;;0.90;99.90;;;;;;4939348;28;20322;-62
2022/01/07 07:01:47;;;;;;;34.55;27.70;;;0.80;99.90;;;;;;4918843;29;20239;-62
2022/01/07 07:04:16;;;;;;;31.92;26.88;;;0.90;99.90;;;;;;4943795;29;20211;-61
2022/01/07 07:06:44;;;;;;;36.25;28.35;;;0.90;99.90;;;;;;4939575;28;20328;-61
2022/01/07 07:09:12;;;;;;;30.95;27.63;;;0.80;99.90;;;;;;4927129;29;20913;-60
2022/01/07 07:11:40;;;;;;;31.30;28.00;;;0.80;99.90;;;;;;4921695;29;20204;-62
2022/01/07 07:14:08;;;;;;;32.30;28.33;;;0.80;99.90;;;;;;4942439;29;20208;-62
2022/01/07 07:16:37;;;;;;;41.42;29.88;;;0.80;99.90;;;;;;4932416;28;20224;-61
2022/01/07 07:19:05;;;;;;;36.92;29.17;;;0.80;99.90;;;;;;4941855;29;20777;-60
2022/01/07 07:21:34;;;;;;;33.90;28.05;;;0.80;99.90;;;;;;4926000;29;20866;-61
2022/01/07 07:24:02;;;;;;;40.10;29.85;;;0.80;99.90;;;;;;4932906;29;20235;-61
2022/01/07 07:26:31;;;;;;;33.53;30.10;;;0.80;99.90;;;;;;4934056;29;20259;-61
2022/01/07 07:28:58;;;;;;;36.30;29.98;;;0.80;99.90;;;;;;4934060;29;20718;-61
2022/01/07 07:31:26;;;;;;;37.03;30.40;;;0.80;99.90;;;;;;4930586;29;20291;-61
2022/01/07 07:36:37;;;;;;;32.00;27.83;;;0.80;99.90;;;;;;4896105;29;20259;-61
2022/01/07 07:39:07;;;;;;;32.22;28.73;;;0.80;99.90;;;;;;4927121;29;20319;-62
2022/01/07 07:41:37;;;;;;;34.20;30.48;;;0.80;99.90;;;;;;4931423;29;20280;-61
2022/01/07 07:44:06;;;;;;;38.83;32.13;;;0.80;99.90;;;;;;4933098;29;20283;-61
2022/01/07 07:46:36;;;;;;;36.45;29.98;;;0.80;99.90;;;;;;4960552;23;20313;-71
2022/01/07 07:49:07;;;;;;;32.03;28.65;;;0.80;99.90;;;;;;4953232;28;20207;-67
2022/01/07 07:51:35;;;;;;;34.63;29.33;;;0.80;99.90;;;;;;4952660;28;20303;-69
2022/01/07 07:54:04;;;;;;;33.78;29.17;;;0.80;99.90;;;;;;4951836;28;20245;-69
2022/01/07 07:56:33;;;;;;;34.60;29.23;;;0.80;99.90;;;;;;4949486;28;20265;-69
2022/01/07 07:59:01;;;;;;;32.55;27.65;;;0.80;99.90;;;;;;4949451;29;20355;-69
2022/01/07 08:01:28;;;;;;;35.53;29.17;;;0.80;99.90;;;;;;4931481;29;20603;-69
2022/01/07 08:03:56;;;;;;;34.42;27.55;;;0.80;99.90;;;;;;4936348;29;20215;-69
2022/01/07 08:06:26;;;;;;;31.70;28.42;;;0.80;99.90;;;;;;4936025;29;20315;-69
2022/01/07 08:08:53;;;;;;;33.97;27.02;;;0.80;99.90;;;;;;4952336;29;20223;-68
2022/01/07 08:11:23;;;;;;;35.03;27.83;;;0.80;99.90;;;;;;4955036;29;20226;-69
2022/01/07 08:16:37;;;;;;;36.88;29.17;;;0.80;99.90;;;;;;4954991;28;20247;-69
2022/01/07 08:19:05;;;;;;;39.00;28.70;;;0.80;99.90;;;;;;4955114;29;20416;-68
2022/01/07 08:21:34;;;;;;;37.35;30.60;;;0.90;99.90;;;;;;4954803;29;20618;-69
2022/01/07 08:24:02;;;;;;;32.92;28.77;;;0.80;99.90;;;;;;4954546;28;20733;-69
2022/01/07 08:26:30;;;;;;;34.00;28.88;;;0.90;99.90;;;;;;4930103;29;20319;-69
2022/01/07 08:29:01;;;;;;;34.72;29.02;;;0.90;99.90;;;;;;4937848;29;20235;-69
2022/01/07 08:37:15;;;;;;;36.78;29.17;;;0.90;99.90;;;;;;4954454;28;20270;-69
2022/01/07 08:39:43;;;;;;;39.10;29.70;;;0.90;99.90;;;;;;4954590;29;20734;-69
2022/01/07 08:42:10;;;;;;;34.10;27.80;;;0.90;99.90;;;;;;4939781;29;20295;-69
2022/01/07 08:44:38;;;;;;;34.42;26.35;;;0.90;99.90;;;;;;4935542;29;20234;-70
2022/01/07 08:47:06;;;;;;;35.65;29.70;;;0.90;99.90;;;;;;4940823;28;20315;-68
2022/01/07 08:49:34;;;;;;;33.70;30.00;;;0.90;99.90;;;;;;4930842;29;20287;-69
2022/01/07 08:52:03;;;;;;;42.40;33.30;;;0.90;99.90;;;;;;4935789;29;20204;-69
2022/01/07 08:54:32;;;;;;;32.72;29.02;;;1.00;99.90;;;;;;4935806;29;20758;-69
2022/01/07 08:57:00;;;;;;;40.88;30.33;;;1.00;99.90;;;;;;4935975;29;20239;-69
2022/01/07 08:59:28;;;;;;;35.75;30.10;;;1.00;99.90;;;;;;4936367;29;20720;-70
2022/01/07 09:01:56;;;;;;;35.33;29.40;;;1.00;99.90;;;;;;4937599;29;20238;-70
2022/01/07 09:04:24;;;;;;;36.20;29.85;;;1.00;99.90;;;;;;4953679;29;20207;-71
2022/01/07 09:06:52;;;;;;;34.22;29.50;;;1.00;99.90;;;;;;4943772;29;20247;-69
2022/01/07 09:09:20;;;;;;;33.72;28.92;;;0.90;99.90;;;;;;4935798;29;20228;-69
2022/01/07 09:11:49;;;;;;;37.42;29.77;;;1.00;99.90;;;;;;4935675;29;20672;-69
2022/01/07 09:14:17;;;;;;;33.05;26.45;;;1.00;99.90;;;;;;4934994;29;20695;-69
2022/01/07 09:16:45;;;;;;;31.45;28.02;;;1.00;99.90;;;;;;4935644;29;20255;-70
2022/01/07 09:19:13;;;;;;;32.72;28.40;;;1.00;99.90;;;;;;4935424;29;20203;-67
2022/01/07 09:21:41;;;;;;;30.73;26.95;;;1.00;99.90;;;;;;4935779;29;20248;-70
2022/01/07 09:24:09;;;;;;;35.13;30.23;;;1.00;99.90;;;;;;4934816;29;20558;-70
2022/01/07 09:26:37;;;;;;;37.78;29.77;;;1.00;99.90;;;;;;4947970;28;20318;-70
2022/01/07 09:29:06;;;;;;;44.40;29.10;;;1.00;99.90;;;;;;4950229;29;20665;-69
2022/01/07 09:31:34;;;;;;;32.25;27.90;;;1.00;99.90;;;;;;4934795;29;20697;-69
2022/01/07 09:34:02;;;;;;;35.13;28.23;;;1.00;99.90;;;;;;4949362;29;20262;-69
2022/01/07 09:36:50;;;;;;;34.63;28.50;;;1.10;99.90;;;;;;4933876;29;20580;-72
2022/01/07 09:39:18;;;;;;;31.30;28.00;;;1.10;99.90;;;;;;4935478;29;20224;-68
2022/01/07 09:41:46;;;;;;;32.00;27.27;;;1.10;99.90;;;;;;4946619;29;20294;-69
2022/01/07 09:44:15;;;;;;;31.67;27.63;;;1.10;99.90;;;;;;4946212;29;20723;-69
2022/01/07 09:46:44;;;;;;;33.85;27.58;;;1.10;99.90;;;;;;4953668;28;20325;-69
2022/01/07 09:49:13;;;;;;;31.63;28.30;;;1.10;99.90;;;;;;4943082;29;20255;-69
2022/01/07 09:51:42;;;;;;;33.25;28.90;;;1.10;99.90;;;;;;4935591;29;20275;-70
2022/01/07 09:54:10;;;;;;;31.80;28.50;;;1.10;99.90;;;;;;4946038;29;20200;-70
2022/01/07 09:56:39;;;;;;;44.25;31.13;;;1.10;99.90;;;;;;4953447;28;20301;-70
2022/01/07 09:59:07;;;;;;;34.22;27.80;;;1.10;99.90;;;;;;4947352;29;20717;-69
2022/01/07 10:01:59;;;;;;;34.47;28.10;;;1.10;99.90;;;;;;4937882;29;20211;-69
2022/01/07 10:04:32;;;;;;;36.30;29.83;;;1.10;99.90;;;;;;4934486;29;20290;-69
2022/01/07 10:07:12;;;;;;;29.05;26.00;;;1.10;99.90;;;;;;4934740;29;20400;-69
2022/01/07 10:09:40;;;;;;;30.63;26.13;;;1.10;99.90;;;;;;4934808;29;20291;-67
2022/01/07 10:12:09;;;;;;;37.25;30.65;;;1.10;99.90;;;;;;4934497;29;20220;-70
2022/01/07 10:14:37;;;;;;;34.90;28.90;;;1.20;99.90;;;;;;4939152;29;20227;-70
2022/01/07 10:17:07;;;;;;;32.22;26.70;;;1.20;99.90;;;;;;4952875;28;20255;-69
2022/01/07 10:19:37;;;;;;;31.58;27.63;;;1.20;99.90;;;;;;4953059;29;20250;-69
2022/01/07 10:22:08;;;;;;;30.38;25.55;;;1.20;99.90;;;;;;4927813;29;20235;-69
2022/01/07 10:24:54;;;;;;;35.22;28.30;;;1.20;99.90;;;;;;4939159;29;20246;-69
2022/01/07 10:27:24;;;;;;;35.97;31.60;;;1.20;99.90;;;;;;4952957;28;20267;-69
2022/01/07 10:29:52;;;;;;;37.00;32.97;;;1.20;99.90;;;;;;4946724;29;20289;-69
2022/01/07 10:32:26;;;;;;;37.05;31.35;;;1.30;99.90;;;;;;4931493;29;20402;-71
2022/01/07 10:35:12;;;;;;;38.47;30.33;;;1.30;99.90;;;;;;4937590;29;20230;-71
2022/01/07 10:37:50;;;;;;;32.28;27.60;;;1.40;99.90;;;;;;4927951;29;20727;-73
2022/01/07 10:40:27;;;;;;;30.55;26.48;;;1.40;99.90;;;;;;4934306;29;20212;-69
2022/01/07 10:42:56;;;;;;;32.83;25.92;;;1.40;99.90;;;;;;4938458;29;20621;-70
2022/01/07 10:45:24;;;;;;;35.63;26.70;;;1.40;99.90;;;;;;4933705;29;20238;-69
2022/01/07 10:47:54;;;;;;;33.08;25.45;;;1.40;99.90;;;;;;4934055;29;20281;-70
2022/01/07 10:50:24;;;;;;;27.20;24.33;;;1.40;99.90;;;;;;4936153;29;20278;-69
2022/01/07 10:52:53;;;;;;;31.85;26.52;;;1.40;99.90;;;;;;4952210;29;20648;-70
2022/01/07 10:55:22;;;;;;;30.08;26.95;;;1.40;99.90;;;;;;4952147;29;20227;-69
2022/01/07 10:57:52;;;;;;;31.42;25.08;;;1.50;99.90;;;;;;4937792;28;20258;-69
2022/01/07 11:00:21;;;;;;;33.97;28.77;;;1.50;99.90;;;;;;4934046;29;20307;-69
2022/01/07 11:02:49;;;;;;;27.00;24.38;;;1.50;99.90;;;;;;4940593;29;20239;-69
2022/01/07 11:05:19;;;;;;;29.23;25.48;;;1.50;99.90;;;;;;4933583;29;20242;-72
2022/01/07 11:07:47;;;;;;;27.33;24.50;;;1.50;99.90;;;;;;4934860;29;20378;-69
2022/01/07 11:10:15;;;;;;;32.17;27.05;;;1.50;99.90;;;;;;4929997;29;20636;-70
2022/01/07 11:12:43;;;;;;;27.65;24.83;;;1.50;99.90;;;;;;4942069;29;20199;-69
2022/01/07 11:15:12;;;;;;;28.27;25.33;;;1.50;99.90;;;;;;4952003;29;20207;-69
2022/01/07 11:17:42;;;;;;;27.70;24.45;;;1.50;99.90;;;;;;4952342;28;20254;-69
2022/01/07 11:20:12;;;;;;;29.60;24.85;;;1.50;99.90;;;;;;4953010;29;20563;-68
2022/01/07 11:22:46;;;;;;;27.25;24.45;;;1.50;99.90;;;;;;4946706;29;20199;-69
2022/01/07 11:25:15;;;;;;;24.75;22.30;;;1.60;99.90;;;;;;4940447;28;20204;-69
2022/01/07 11:27:52;;;;;;;26.70;24.10;;;1.60;99.90;;;;;;4935433;29;20243;-72
2022/01/07 11:30:23;;;;;;;27.10;24.00;;;1.60;99.90;;;;;;4932348;29;20660;-69
2022/01/07 11:32:52;;;;;;;25.85;23.15;;;1.60;99.90;;;;;;4933187;29;20206;-69
2022/01/07 11:35:45;;;;;;;26.25;23.42;;;1.60;99.90;;;;;;4934209;28;20668;-69
2022/01/07 11:38:40;;;;;;;26.48;23.58;;;1.60;99.90;;;;;;4930824;29;20223;-70
2022/01/07 11:41:41;;;;;;;24.33;21.73;;;1.60;99.90;;;;;;4923078;29;20331;-69
2022/01/07 11:44:14;;;;;;;25.30;20.92;;;1.60;99.90;;;;;;4937194;29;20241;-69
2022/01/07 11:46:42;;;;;;;24.00;21.70;;;1.60;99.90;;;;;;4941471;29;20721;-69
2022/01/07 11:49:32;;;;;;;23.67;21.27;;;1.60;99.90;;;;;;4937732;29;20619;-68
2022/01/07 11:52:29;;;;;;;26.10;20.98;;;1.60;99.90;;;;;;4931028;29;20279;-70
2022/01/07 11:55:26;;;;;;;24.77;21.75;;;1.70;99.90;;;;;;4942645;29;20294;-69
2022/01/07 11:57:57;;;;;;;23.58;20.95;;;1.70;99.90;;;;;;4931829;29;20629;-70
2022/01/07 12:00:51;;;;;;;22.50;19.52;;;1.70;99.90;;;;;;4938105;29;20681;-69
2022/01/07 12:03:37;;;;;;;24.48;20.70;;;1.70;99.90;;;;;;4935020;29;20207;-68
2022/01/07 12:06:44;;;;;;;21.10;19.10;;;1.70;99.90;;;;;;4936943;29;20192;-70
2022/01/07 12:09:25;;;;;;;26.98;20.67;;;1.70;99.90;;;;;;4937632;29;20227;-70
2022/01/07 12:11:59;;;;;;;21.58;19.40;;;1.80;99.90;;;;;;4935048;29;20243;-69
2022/01/07 12:14:30;;;;;;;22.50;19.73;;;1.80;99.90;;;;;;4944687;29;20294;-68
2022/01/07 12:17:01;;;;;;;28.25;20.90;;;1.80;99.90;;;;;;4936375;29;20319;-70
2022/01/07 12:20:19;;;;;;;22.58;20.02;;;1.80;99.90;;;;;;4942595;29;20211;-69
2022/01/07 12:22:53;;;;;;;23.15;20.52;;;1.80;99.90;;;;;;4939595;29;20747;-69
2022/01/07 12:25:25;;;;;;;21.00;18.55;;;1.90;99.90;;;;;;4954805;29;20219;-68
2022/01/07 12:28:08;;;;;;;20.17;18.23;;;1.80;99.90;;;;;;4949891;28;20220;-69
2022/01/07 12:30:36;;;;;;;20.70;18.60;;;1.90;99.90;;;;;;4930724;29;20195;-69
2022/01/07 12:33:09;;;;;;;22.02;19.60;;;1.90;99.90;;;;;;4935724;29;20644;-69
2022/01/07 12:35:38;;;;;;;20.90;18.70;;;2.00;99.90;;;;;;4936324;29;20227;-69
2022/01/07 12:38:15;;;;;;;26.08;21.60;;;2.00;99.90;;;;;;4933649;29;20308;-69
2022/01/07 12:40:51;;;;;;;20.70;18.80;;;2.00;99.90;;;;;;4936845;29;20284;-68
2022/01/07 12:43:22;;;;;;;20.30;18.15;;;2.00;99.90;;;;;;4935123;29;20211;-68
2022/01/07 12:46:00;;;;;;;23.38;20.27;;;2.00;99.90;;;;;;4933907;29;20204;-68
2022/01/07 12:48:36;;;;;;;22.40;20.10;;;2.10;99.90;;;;;;4935374;29;20586;-67
2022/01/07 12:51:06;;;;;;;18.75;16.55;;;2.10;99.90;;;;;;4929936;29;20238;-67
2022/01/07 12:53:35;;;;;;;18.55;16.58;;;2.10;99.90;;;;;;4933736;29;20667;-67
2022/01/07 12:56:23;;;;;;;17.13;15.63;;;2.10;99.90;;;;;;4935344;29;20709;-67
2022/01/07 12:58:53;;;;;;;16.40;14.80;;;2.10;99.90;;;;;;4933874;29;20199;-67
2022/01/07 13:01:26;;;;;;;18.30;15.13;;;2.10;99.90;;;;;;4934447;29;20224;-67
2022/01/07 13:04:05;;;;;;;16.98;14.32;;;2.10;99.90;;;;;;4932493;29;20752;-67